createdAt,value
2017-10-11T00:00:27.675Z,12.60
2017-10-11T00:02:53.909Z,11.50
2017-10-11T00:05:20.122Z,12.43
2017-10-11T00:07:46.358Z,13.50
2017-10-11T00:10:12.580Z,12.93
2017-10-11T00:12:38.870Z,12.47
2017-10-11T00:15:05.093Z,12.77
2017-10-11T00:17:31.317Z,11.60
2017-10-11T00:19:57.576Z,12.03
2017-10-11T00:22:23.798Z,11.30
2017-10-11T00:24:50.043Z,9.63
2017-10-11T00:27:16.282Z,10.70
2017-10-11T00:29:42.487Z,10.20
2017-10-11T00:32:08.700Z,10.60
2017-10-11T00:34:34.920Z,12.37
2017-10-11T00:37:01.179Z,11.27
2017-10-11T00:39:27.409Z,11.77
2017-10-11T00:41:53.641Z,10.83
2017-10-11T00:44:19.890Z,10.10
2017-10-11T00:46:46.254Z,10.13
2017-10-11T00:49:12.575Z,10.10
2017-10-11T00:51:38.798Z,9.03
2017-10-11T00:54:05.021Z,10.20
2017-10-11T00:56:31.246Z,12.00
2017-10-11T00:58:57.472Z,12.30
2017-10-11T01:01:23.799Z,11.20
2017-10-11T01:03:50.025Z,10.80
2017-10-11T01:06:16.249Z,11.90
2017-10-11T01:08:42.480Z,10.87
2017-10-11T01:11:08.708Z,12.50
2017-10-11T01:13:34.938Z,13.40
2017-10-11T01:16:01.154Z,12.77
2017-10-11T01:18:27.422Z,14.90
2017-10-11T01:20:53.664Z,15.30
2017-10-11T01:23:19.894Z,15.67
2017-10-11T01:25:46.157Z,14.90
2017-10-11T01:28:12.377Z,16.87
2017-10-11T01:30:38.624Z,14.83
2017-10-11T01:33:04.970Z,14.67
2017-10-11T01:35:31.227Z,15.50
2017-10-11T01:37:57.487Z,14.70
2017-10-11T01:40:23.698Z,14.17
2017-10-11T01:42:49.917Z,13.07
2017-10-11T01:45:16.151Z,11.80
2017-10-11T01:47:42.391Z,10.90
2017-10-11T01:50:08.602Z,11.23
2017-10-11T01:52:35.011Z,11.90
2017-10-11T01:55:01.229Z,10.13
2017-10-11T01:57:27.439Z,11.10
2017-10-11T01:59:53.664Z,11.50
2017-10-11T02:02:19.920Z,13.00
2017-10-11T02:04:46.152Z,12.50
2017-10-11T02:07:12.399Z,12.30
2017-10-11T02:09:38.650Z,11.30
2017-10-11T02:12:05.067Z,10.80
2017-10-11T02:14:31.358Z,12.30
2017-10-11T02:16:57.604Z,13.30
2017-10-11T02:19:23.953Z,11.43
2017-10-11T02:21:50.170Z,13.57
2017-10-11T02:24:16.411Z,12.00
2017-10-11T02:26:42.649Z,11.77
2017-10-11T02:29:08.887Z,11.50
2017-10-11T02:31:35.101Z,11.40
2017-10-11T02:34:01.315Z,11.43
2017-10-11T02:36:27.544Z,11.83
2017-10-11T02:38:53.833Z,10.93
2017-10-11T02:41:20.064Z,11.53
2017-10-11T02:43:46.290Z,12.20
2017-10-11T02:46:12.540Z,13.37
2017-10-11T02:48:38.776Z,11.73
2017-10-11T02:51:05.005Z,12.00
2017-10-11T02:53:31.243Z,13.67
2017-10-11T02:55:57.469Z,15.00
2017-10-11T02:58:23.808Z,14.00
2017-10-11T03:00:50.070Z,12.63
2017-10-11T03:03:16.462Z,15.30
2017-10-11T03:05:42.679Z,12.60
2017-10-11T03:08:08.921Z,14.03
2017-10-11T03:10:35.152Z,14.20
2017-10-11T03:13:01.388Z,17.17
2017-10-11T03:15:27.621Z,10.97
2017-10-11T03:17:53.861Z,15.43
2017-10-11T03:20:20.111Z,14.00
2017-10-11T03:22:46.508Z,14.73
2017-10-11T03:25:12.728Z,16.43
2017-10-11T03:27:39.013Z,13.20
2017-10-11T03:30:05.230Z,14.60
2017-10-11T03:32:31.444Z,14.60
2017-10-11T03:34:57.699Z,13.70
2017-10-11T03:37:24.582Z,15.10
2017-10-11T03:39:50.935Z,15.03
2017-10-11T03:42:17.180Z,15.20
2017-10-11T03:44:43.407Z,11.10
2017-10-11T03:47:09.647Z,12.30
2017-10-11T03:49:35.875Z,13.53
2017-10-11T03:52:02.116Z,15.60
2017-10-11T03:54:28.358Z,16.73
2017-10-11T03:56:54.581Z,16.40
2017-10-11T03:59:20.799Z,14.63
2017-10-11T04:01:47.026Z,15.80
2017-10-11T04:04:13.299Z,13.50
2017-10-11T04:06:39.649Z,11.57
2017-10-11T04:09:05.870Z,15.20
2017-10-11T04:11:32.100Z,14.43
2017-10-11T04:13:58.540Z,12.27
2017-10-11T04:16:24.780Z,14.00
2017-10-11T04:18:51.058Z,13.43
2017-10-11T04:21:17.295Z,13.70
2017-10-11T04:23:43.516Z,15.53
2017-10-11T04:26:09.752Z,12.83
2017-10-11T04:28:36.030Z,13.87
2017-10-11T04:31:02.257Z,14.00
2017-10-11T04:33:28.574Z,13.37
2017-10-11T04:35:54.837Z,14.87
2017-10-11T04:38:21.059Z,14.00
2017-10-11T04:40:47.335Z,15.67
2017-10-11T04:43:13.558Z,16.00
2017-10-11T04:45:39.932Z,15.00
2017-10-11T04:48:06.142Z,16.37
2017-10-11T04:50:32.412Z,18.53
2017-10-11T04:52:58.660Z,17.90
2017-10-11T04:55:24.893Z,15.83
2017-10-11T04:57:51.126Z,14.40
2017-10-11T05:00:17.358Z,12.30
2017-10-11T05:02:43.597Z,13.13
2017-10-11T05:05:09.864Z,12.93
2017-10-11T05:07:36.101Z,14.90
2017-10-11T05:10:02.342Z,13.13
2017-10-11T05:12:28.579Z,15.07
2017-10-11T05:14:54.807Z,14.23
2017-10-11T05:17:21.141Z,13.47
2017-10-11T05:19:47.399Z,13.17
2017-10-11T05:22:13.676Z,12.50
2017-10-11T05:24:39.927Z,11.80
2017-10-11T05:27:06.158Z,7.10
2017-10-11T05:29:32.385Z,8.57
2017-10-11T05:31:58.645Z,9.07
2017-10-11T05:34:24.877Z,9.27
2017-10-11T05:36:51.116Z,9.27
2017-10-11T05:39:17.330Z,7.90
2017-10-11T05:41:43.542Z,8.27
2017-10-11T05:44:09.827Z,9.57
2017-10-11T05:46:36.057Z,8.40
2017-10-11T05:49:02.307Z,7.73
2017-10-11T05:51:28.541Z,9.10
2017-10-11T05:53:54.763Z,8.60
2017-10-11T05:56:20.986Z,10.60
2017-10-11T05:58:47.383Z,10.90
2017-10-11T06:01:13.640Z,10.43
2017-10-11T06:03:39.873Z,11.00
2017-10-11T06:06:06.103Z,11.90
2017-10-11T06:08:32.349Z,21.50
2017-10-11T06:10:58.612Z,11.90
2017-10-11T06:13:24.939Z,14.53
2017-10-11T06:15:51.171Z,14.37
2017-10-11T06:18:17.411Z,13.33
2017-10-11T06:20:43.637Z,13.37
2017-10-11T06:23:09.865Z,13.10
2017-10-11T06:25:36.328Z,14.00
2017-10-11T06:28:02.544Z,13.57
2017-10-11T06:30:28.771Z,11.60
2017-10-11T06:32:55.009Z,10.13
2017-10-11T06:35:21.240Z,11.20
2017-10-11T06:37:47.457Z,8.97
2017-10-11T06:40:13.673Z,8.33
2017-10-11T06:42:39.901Z,8.73
2017-10-11T06:45:06.127Z,9.77
2017-10-11T06:47:32.369Z,7.20
2017-10-11T06:49:58.640Z,7.63
2017-10-11T06:52:24.862Z,6.97
2017-10-11T06:54:51.077Z,7.23
2017-10-11T06:57:17.305Z,7.13
2017-10-11T06:59:43.525Z,9.67
2017-10-11T07:02:09.746Z,11.20
2017-10-11T07:04:36.029Z,10.70
2017-10-11T07:07:02.261Z,11.57
2017-10-11T07:09:28.497Z,12.27
2017-10-11T07:11:54.879Z,8.20
2017-10-11T07:14:21.123Z,7.50
2017-10-11T07:16:47.334Z,5.77
2017-10-11T07:19:13.572Z,5.60
2017-10-11T07:21:39.811Z,7.80
2017-10-11T07:24:06.032Z,6.57
2017-10-11T07:26:32.277Z,5.17
2017-10-11T07:28:58.490Z,5.07
2017-10-11T07:31:24.703Z,6.30
2017-10-11T07:33:50.926Z,6.00
2017-10-11T07:36:17.162Z,4.30
2017-10-11T07:38:43.404Z,4.70
2017-10-11T07:41:09.639Z,3.73
2017-10-11T07:43:35.867Z,4.60
2017-10-11T07:46:02.115Z,4.50
2017-10-11T07:48:28.333Z,4.50
2017-10-11T07:50:54.591Z,5.53
2017-10-11T07:53:20.801Z,5.50
2017-10-11T07:55:47.029Z,4.93
2017-10-11T07:58:13.265Z,4.30
2017-10-11T08:00:39.499Z,4.97
2017-10-11T08:03:05.713Z,5.37
2017-10-11T08:05:31.966Z,5.77
2017-10-11T08:07:58.190Z,5.93
2017-10-11T08:10:24.399Z,5.47
2017-10-11T08:12:50.621Z,6.40
2017-10-11T08:15:16.889Z,5.80
2017-10-11T08:17:43.251Z,7.10
2017-10-11T08:20:09.494Z,5.73
2017-10-11T08:22:35.732Z,5.87
2017-10-11T08:25:01.950Z,6.17
2017-10-11T08:27:28.291Z,6.67
2017-10-11T08:29:54.502Z,7.43
2017-10-11T08:32:20.719Z,7.53
2017-10-11T08:34:46.949Z,8.43
2017-10-11T08:37:13.203Z,7.97
2017-10-11T08:39:39.418Z,7.13
2017-10-11T08:42:05.607Z,7.20
2017-10-11T08:44:31.826Z,6.73
2017-10-11T08:46:58.059Z,7.17
2017-10-11T08:49:24.278Z,5.37
2017-10-11T08:51:50.503Z,5.80
2017-10-11T08:54:16.726Z,6.30
2017-10-11T08:56:42.955Z,8.40
2017-10-11T08:59:09.176Z,6.80
2017-10-11T09:01:35.454Z,8.50
2017-10-11T09:04:01.741Z,6.93
2017-10-11T09:06:27.964Z,5.97
2017-10-11T09:08:54.194Z,5.27
2017-10-11T09:11:20.443Z,5.50
2017-10-11T09:13:46.628Z,6.23
2017-10-11T09:16:12.859Z,6.70
2017-10-11T09:18:39.059Z,6.93
2017-10-11T09:21:05.230Z,4.87
2017-10-11T09:23:31.432Z,5.43
2017-10-11T09:25:57.604Z,5.20
2017-10-11T09:28:23.784Z,5.73
2017-10-11T09:30:49.968Z,4.87
2017-10-11T09:33:16.154Z,4.77
2017-10-11T09:35:42.359Z,4.60
2017-10-11T09:38:08.549Z,4.87
2017-10-11T09:40:34.711Z,5.43
2017-10-11T09:43:00.941Z,5.17
2017-10-11T09:45:27.131Z,4.63
2017-10-11T09:47:53.369Z,5.13
2017-10-11T09:50:19.548Z,4.27
2017-10-11T09:52:45.749Z,4.70
2017-10-11T09:55:12.130Z,5.27
2017-10-11T09:57:38.326Z,4.83
2017-10-11T10:00:04.544Z,4.03
2017-10-11T10:02:30.801Z,3.90
2017-10-11T10:04:56.989Z,4.03
2017-10-11T10:07:23.162Z,3.93
2017-10-11T10:09:49.326Z,4.60
2017-10-11T10:12:15.504Z,3.80
2017-10-11T10:14:41.692Z,3.70
2017-10-11T10:17:07.868Z,4.20
2017-10-11T10:19:34.093Z,3.47
2017-10-11T10:22:00.288Z,4.17
2017-10-11T10:24:26.467Z,3.53
2017-10-11T10:26:52.649Z,3.70
2017-10-11T10:29:18.837Z,3.43
2017-10-11T10:31:45.045Z,2.93
2017-10-11T10:34:11.230Z,3.27
2017-10-11T10:36:37.423Z,3.10
2017-10-11T10:39:03.609Z,3.50
2017-10-11T10:41:29.805Z,3.73
2017-10-11T10:43:55.997Z,4.13
2017-10-11T10:46:22.205Z,3.43
2017-10-11T10:48:48.374Z,3.90
2017-10-11T10:51:14.545Z,3.17
2017-10-11T10:53:40.726Z,4.63
2017-10-11T10:56:06.894Z,2.93
2017-10-11T10:58:33.110Z,3.60
2017-10-11T11:00:59.278Z,4.83
2017-10-11T11:03:25.437Z,3.70
2017-10-11T11:05:51.617Z,3.37
2017-10-11T11:08:17.830Z,2.40
2017-10-11T11:10:44.036Z,3.10
2017-10-11T11:13:10.218Z,3.57
2017-10-11T11:15:36.387Z,3.30
2017-10-11T11:18:02.563Z,3.20
2017-10-11T11:20:28.746Z,3.30
2017-10-11T11:22:54.952Z,2.47
2017-10-11T11:25:21.093Z,2.63
2017-10-11T11:27:47.267Z,3.03
2017-10-11T11:30:13.650Z,2.57
2017-10-11T11:32:39.831Z,3.33
2017-10-11T11:35:06.119Z,1.80
2017-10-11T11:37:32.314Z,2.10
2017-10-11T11:39:58.489Z,2.10
2017-10-11T11:42:24.650Z,1.73
2017-10-11T11:44:50.809Z,2.40
2017-10-11T11:47:17.033Z,2.07
2017-10-11T11:49:43.216Z,2.60
2017-10-11T11:52:09.396Z,2.47
2017-10-11T11:54:35.562Z,2.00
2017-10-11T11:57:01.745Z,1.67
2017-10-11T11:59:27.968Z,1.90
2017-10-11T12:01:54.135Z,2.40
2017-10-11T12:04:20.295Z,2.40
2017-10-11T12:06:46.488Z,2.30
2017-10-11T12:09:12.775Z,2.00
2017-10-11T12:11:38.995Z,2.03
2017-10-11T12:14:05.176Z,2.50
2017-10-11T12:16:31.335Z,3.27
2017-10-11T12:18:57.536Z,2.93
2017-10-11T12:21:23.706Z,2.33
2017-10-11T12:23:49.860Z,1.60
2017-10-11T12:26:16.036Z,2.40
2017-10-11T12:28:42.201Z,2.37
2017-10-11T12:31:08.390Z,2.60
2017-10-11T12:33:34.558Z,2.30
2017-10-11T12:36:00.702Z,1.93
2017-10-11T12:38:26.863Z,2.57
2017-10-11T12:40:53.023Z,2.23
2017-10-11T12:43:19.253Z,2.77
2017-10-11T12:45:45.504Z,2.43
2017-10-11T12:48:11.679Z,2.47
2017-10-11T12:50:37.868Z,2.50
2017-10-11T12:53:04.044Z,2.47
2017-10-11T12:55:30.264Z,2.70
2017-10-11T12:57:56.429Z,2.50
2017-10-11T13:00:22.608Z,3.00
2017-10-11T13:02:48.939Z,2.57
2017-10-11T13:05:15.282Z,2.43
2017-10-11T13:07:41.500Z,2.10
2017-10-11T13:10:07.681Z,2.70
2017-10-11T13:12:33.861Z,2.50
2017-10-11T13:15:00.072Z,2.80
2017-10-11T13:17:26.247Z,2.70
2017-10-11T13:19:52.419Z,2.80
2017-10-11T13:22:18.617Z,3.50
2017-10-11T13:24:44.802Z,3.13
2017-10-11T13:27:10.983Z,3.23
2017-10-11T13:29:37.201Z,4.00
2017-10-11T13:32:03.409Z,3.20
2017-10-11T13:34:29.629Z,3.40
2017-10-11T13:36:55.795Z,4.40
2017-10-11T13:39:21.965Z,3.43
2017-10-11T13:41:48.122Z,4.53
2017-10-11T13:44:14.325Z,3.93
2017-10-11T13:46:40.500Z,4.07
2017-10-11T13:49:06.808Z,3.20
2017-10-11T13:51:32.976Z,4.53
2017-10-11T13:53:59.154Z,3.30
2017-10-11T13:56:25.331Z,4.90
2017-10-11T13:58:51.554Z,4.40
2017-10-11T14:01:17.732Z,3.00
2017-10-11T14:03:44.026Z,6.97
2017-10-11T14:06:10.276Z,4.80
2017-10-11T14:08:36.437Z,5.33
2017-10-11T14:11:02.606Z,4.87
2017-10-11T14:13:28.784Z,8.70
2017-10-11T14:15:54.950Z,5.70
2017-10-11T14:18:21.121Z,4.03
2017-10-11T14:20:47.386Z,3.83
2017-10-11T14:23:13.547Z,4.30
2017-10-11T14:25:39.797Z,4.57
2017-10-11T14:28:05.964Z,3.10
2017-10-11T14:30:32.154Z,3.73
2017-10-11T14:32:58.565Z,4.90
2017-10-11T14:35:24.800Z,4.07
2017-10-11T14:37:51.040Z,4.60
2017-10-11T14:40:17.275Z,4.70
2017-10-11T14:42:43.687Z,11.97
2017-10-11T14:45:09.913Z,4.00
2017-10-11T14:47:36.141Z,4.50
2017-10-11T14:50:02.383Z,3.40
2017-10-11T14:52:28.628Z,10.83
2017-10-11T14:54:54.896Z,10.37
2017-10-11T14:57:21.295Z,5.27
2017-10-11T14:59:47.545Z,4.00
2017-10-11T15:02:13.903Z,5.30
2017-10-11T15:04:40.123Z,5.90
2017-10-11T15:07:06.355Z,4.87
2017-10-11T15:09:32.611Z,7.33
2017-10-11T15:11:58.843Z,6.17
2017-10-11T15:14:25.274Z,6.37
2017-10-11T15:16:51.512Z,5.40
2017-10-11T15:19:17.935Z,6.73
2017-10-11T15:21:44.292Z,6.83
2017-10-11T15:24:10.604Z,5.33
2017-10-11T15:26:37.031Z,5.80
2017-10-11T15:29:03.274Z,7.50
2017-10-11T15:31:29.481Z,5.10
2017-10-11T15:33:55.732Z,6.10
2017-10-11T15:36:21.969Z,7.03
2017-10-11T15:38:48.237Z,6.27
2017-10-11T15:41:14.439Z,6.13
2017-10-11T15:43:40.646Z,6.90
2017-10-11T15:46:06.866Z,7.57
2017-10-11T15:48:33.099Z,9.03
2017-10-11T15:50:59.318Z,7.43
2017-10-11T15:53:25.535Z,7.50
2017-10-11T15:55:51.744Z,9.13
2017-10-11T15:58:17.979Z,7.40
2017-10-11T16:00:44.197Z,9.33
2017-10-11T16:03:10.454Z,8.83
2017-10-11T16:05:36.669Z,9.10
2017-10-11T16:08:02.887Z,9.70
2017-10-11T16:10:29.120Z,9.47
2017-10-11T16:12:55.348Z,9.50
2017-10-11T16:15:21.579Z,9.77
2017-10-11T16:17:47.801Z,9.27
2017-10-11T16:20:14.017Z,8.60
2017-10-11T16:22:40.235Z,10.33
2017-10-11T16:25:06.467Z,10.03
2017-10-11T16:27:32.747Z,9.93
2017-10-11T16:29:58.975Z,9.97
2017-10-11T16:32:25.183Z,10.70
2017-10-11T16:34:51.437Z,7.13
2017-10-11T16:37:17.634Z,6.60
2017-10-11T16:39:43.884Z,7.30
2017-10-11T16:42:10.111Z,8.57
2017-10-11T16:44:36.339Z,7.67
2017-10-11T16:47:02.573Z,7.90
2017-10-11T16:49:28.807Z,9.00
2017-10-11T16:51:55.043Z,10.23
2017-10-11T16:54:21.267Z,9.33
2017-10-11T16:56:47.504Z,11.40
2017-10-11T16:59:13.727Z,9.33
2017-10-11T17:01:39.945Z,11.63
2017-10-11T17:04:06.232Z,14.23
2017-10-11T17:06:32.455Z,13.20
2017-10-11T17:08:58.675Z,14.10
2017-10-11T17:11:24.903Z,10.30
2017-10-11T17:13:51.118Z,9.90
2017-10-11T17:16:17.376Z,10.67
2017-10-11T17:18:43.726Z,9.17
2017-10-11T17:21:09.926Z,8.40
2017-10-11T17:23:36.150Z,8.40
2017-10-11T17:26:02.379Z,9.17
2017-10-11T17:28:28.588Z,9.30
2017-10-11T17:30:54.820Z,7.70
2017-10-11T17:33:21.031Z,7.83
2017-10-11T17:35:47.339Z,8.43
2017-10-11T17:38:13.549Z,8.70
2017-10-11T17:40:39.776Z,8.40
2017-10-11T17:43:06.000Z,9.47
2017-10-11T17:45:32.220Z,12.03
2017-10-11T17:47:58.451Z,10.00
2017-10-11T17:50:24.668Z,9.37
2017-10-11T17:52:50.879Z,9.60
2017-10-11T17:55:17.104Z,9.57
2017-10-11T17:57:43.321Z,8.50
2017-10-11T18:00:09.565Z,9.07
2017-10-11T18:02:35.792Z,10.27
2017-10-11T18:05:02.070Z,11.70
2017-10-11T18:07:28.293Z,10.40
2017-10-11T18:09:54.503Z,11.87
2017-10-11T18:12:20.749Z,10.80
2017-10-11T18:14:46.966Z,10.43
2017-10-11T18:17:13.181Z,10.70
2017-10-11T18:19:39.392Z,16.10
2017-10-11T18:22:05.603Z,14.30
2017-10-11T18:24:31.811Z,14.40
2017-10-11T18:26:58.033Z,11.23
2017-10-11T18:29:24.252Z,11.13
2017-10-11T18:31:50.487Z,22.57
2017-10-11T18:34:16.740Z,12.17
2017-10-11T18:36:42.950Z,11.30
2017-10-11T18:39:09.163Z,10.97
2017-10-11T18:41:35.530Z,11.60
2017-10-11T18:44:01.755Z,12.43
2017-10-11T18:46:28.006Z,11.20
2017-10-11T18:48:54.268Z,11.40
2017-10-11T18:51:20.484Z,10.77
2017-10-11T18:53:46.774Z,13.87
2017-10-11T18:56:12.998Z,16.70
2017-10-11T18:58:39.219Z,13.03
2017-10-11T19:01:05.462Z,16.40
2017-10-11T19:03:31.690Z,13.40
2017-10-11T19:05:57.895Z,15.10
2017-10-11T19:08:24.163Z,11.03
2017-10-11T19:10:50.371Z,17.70
2017-10-11T19:13:16.577Z,13.57
2017-10-11T19:15:42.802Z,13.80
2017-10-11T19:18:09.025Z,13.50
2017-10-11T19:20:35.298Z,12.47
2017-10-11T19:23:01.526Z,11.53
2017-10-11T19:25:27.721Z,11.30
2017-10-11T19:27:53.943Z,12.30
2017-10-11T19:30:20.149Z,11.67
2017-10-11T19:32:46.411Z,11.30
2017-10-11T19:35:12.627Z,10.37
2017-10-11T19:37:38.847Z,10.53
2017-10-11T19:40:05.063Z,11.77
2017-10-11T19:42:31.342Z,12.33
2017-10-11T19:44:57.570Z,12.90
2017-10-11T19:47:23.811Z,11.50
2017-10-11T19:49:50.032Z,11.03
2017-10-11T19:52:16.244Z,11.40
2017-10-11T19:54:42.450Z,10.87
2017-10-11T19:57:08.658Z,11.60
2017-10-11T19:59:34.866Z,11.33
2017-10-11T20:02:01.175Z,10.30
2017-10-11T20:04:27.386Z,12.00
2017-10-11T20:06:53.815Z,11.57
2017-10-11T20:09:20.023Z,12.07
2017-10-11T20:11:46.287Z,11.27
2017-10-11T20:14:12.523Z,11.03
2017-10-11T20:16:38.930Z,13.30
2017-10-11T20:19:05.239Z,11.30
2017-10-11T20:21:31.444Z,11.07
2017-10-11T20:23:57.640Z,11.40
2017-10-11T20:26:23.891Z,11.40
2017-10-11T20:28:50.095Z,11.90
2017-10-11T20:31:16.332Z,11.73
2017-10-11T20:33:42.552Z,11.03
2017-10-11T20:36:08.782Z,11.97
2017-10-11T20:38:35.023Z,11.50
2017-10-11T20:41:02.289Z,12.13
2017-10-11T20:43:28.825Z,10.97
2017-10-11T20:45:55.120Z,11.30
2017-10-11T20:48:21.328Z,11.90
2017-10-11T20:50:47.534Z,11.33
2017-10-11T20:53:13.771Z,10.27
2017-10-11T20:55:39.964Z,11.13
2017-10-11T20:58:06.199Z,12.07
2017-10-11T21:00:32.543Z,12.67
2017-10-11T21:02:58.777Z,13.37
2017-10-11T21:05:24.990Z,13.60
2017-10-11T21:07:51.391Z,13.00
2017-10-11T21:10:17.639Z,11.93
2017-10-11T21:12:44.055Z,13.13
2017-10-11T21:15:10.263Z,13.27
2017-10-11T21:17:36.508Z,13.33
2017-10-11T21:20:02.730Z,11.90
2017-10-11T21:22:28.967Z,13.07
2017-10-11T21:24:55.182Z,12.53
2017-10-11T21:27:21.400Z,13.30
2017-10-11T21:29:47.663Z,11.77
2017-10-11T21:32:13.874Z,11.73
2017-10-11T21:34:40.099Z,11.33
2017-10-11T21:37:06.345Z,10.70
2017-10-11T21:39:32.554Z,11.63
2017-10-11T21:41:58.774Z,10.70
2017-10-11T21:44:25.023Z,9.70
2017-10-11T21:46:51.256Z,10.70
2017-10-11T21:49:17.471Z,11.57
2017-10-11T21:51:43.720Z,11.17
2017-10-11T21:54:09.948Z,9.47
2017-10-11T21:56:36.163Z,11.80
2017-10-11T21:59:02.434Z,11.70
2017-10-11T22:01:28.655Z,12.00
2017-10-11T22:03:54.869Z,11.23
2017-10-11T22:06:21.122Z,10.73
2017-10-11T22:08:47.343Z,11.80
2017-10-11T22:11:13.554Z,12.73
2017-10-11T22:13:39.794Z,14.40
2017-10-11T22:16:06.020Z,12.97
2017-10-11T22:18:32.232Z,15.60
2017-10-11T22:20:58.472Z,15.63
2017-10-11T22:23:24.687Z,15.93
2017-10-11T22:25:50.916Z,17.17
2017-10-11T22:28:17.174Z,16.10
2017-10-11T22:30:43.399Z,18.77
2017-10-11T22:33:09.632Z,16.70
2017-10-11T22:35:35.897Z,16.07
2017-10-11T22:38:02.267Z,14.57
2017-10-11T22:40:28.500Z,14.90
2017-10-11T22:42:54.767Z,15.70
2017-10-11T22:45:21.001Z,13.67
2017-10-11T22:47:47.237Z,14.93
2017-10-11T22:50:13.601Z,13.30
2017-10-11T22:52:39.835Z,14.00
2017-10-11T22:55:06.048Z,14.43
2017-10-11T22:57:32.505Z,14.53
2017-10-11T22:59:58.740Z,13.60
2017-10-11T23:02:24.988Z,13.27
2017-10-11T23:04:51.259Z,14.43
2017-10-11T23:07:17.493Z,14.57
2017-10-11T23:09:43.727Z,13.40
2017-10-11T23:12:10.020Z,13.60
2017-10-11T23:14:36.272Z,13.07
2017-10-11T23:17:02.515Z,13.47
2017-10-11T23:19:28.773Z,13.27
2017-10-11T23:21:54.998Z,11.70
2017-10-11T23:24:21.213Z,12.13
2017-10-11T23:26:47.504Z,11.00
2017-10-11T23:29:13.734Z,11.10
2017-10-11T23:31:39.952Z,11.40
2017-10-11T23:34:06.210Z,11.73
2017-10-11T23:36:32.447Z,12.47
2017-10-11T23:38:58.653Z,12.27
2017-10-11T23:41:24.935Z,12.47
2017-10-11T23:43:51.146Z,11.47
2017-10-11T23:46:17.383Z,12.17
2017-10-11T23:48:43.715Z,10.67
2017-10-11T23:51:09.941Z,13.17
2017-10-11T23:53:36.182Z,14.03
2017-10-11T23:56:02.463Z,12.17
2017-10-11T23:58:28.669Z,12.27
